Time;durP1;ratioP1;P1;durP2;ratioP2;P2;SDS_P1;SDS_P2;PMS_P1;PMS_P2;Temp;Humidity;BMP_temperature;BMP_pressure;BME280_temperature;BME280_humidity;BME280_pressure;Samples;Min_cycle;Max_cycle;Signal;HPM_P1;HPM_P2
2022/12/05 00:01:29;;;;;;;32.97;21.58;;;4.20;99.90;;;;;;5106369;28;20109;-71
2022/12/05 00:03:58;;;;;;;32.90;21.85;;;4.20;99.90;;;;;;5086336;28;20054;-71
2022/12/05 00:06:26;;;;;;;33.65;22.02;;;4.20;99.90;;;;;;5095055;28;20614;-71
2022/12/05 00:08:52;;;;;;;34.92;22.02;;;4.30;99.90;;;;;;5096205;28;20415;-71
2022/12/05 00:11:24;;;;;;;35.58;23.48;;;4.30;99.90;;;;;;5095263;28;20044;-70
2022/12/05 00:13:52;;;;;;;35.00;22.52;;;4.30;99.90;;;;;;5075475;28;20491;-71
2022/12/05 00:16:21;;;;;;;39.08;25.13;;;4.50;99.90;;;;;;5075793;28;20047;-72
2022/12/05 00:18:47;;;;;;;36.60;22.65;;;4.40;99.90;;;;;;5089392;28;20047;-72
2022/12/05 00:21:20;;;;;;;39.20;26.25;;;4.40;99.90;;;;;;5057871;28;20105;-72
2022/12/05 00:23:45;;;;;;;40.95;25.27;;;4.30;99.90;;;;;;5113078;28;20108;-70
2022/12/05 00:26:12;;;;;;;39.08;25.65;;;4.40;99.90;;;;;;5113440;28;20126;-71
2022/12/05 00:28:39;;;;;;;37.35;25.33;;;4.30;99.90;;;;;;5080843;28;20085;-71
2022/12/05 00:31:07;;;;;;;34.58;22.63;;;4.40;99.90;;;;;;5085335;28;20069;-71
2022/12/05 00:33:33;;;;;;;38.53;24.77;;;4.30;99.90;;;;;;5058380;28;20036;-71
2022/12/05 00:36:08;;;;;;;36.88;22.98;;;4.50;99.90;;;;;;5062544;28;20048;-72
2022/12/05 00:38:34;;;;;;;37.22;22.90;;;4.40;99.90;;;;;;5072161;28;20039;-72
2022/12/05 00:41:09;;;;;;;37.75;24.45;;;4.40;99.90;;;;;;5083008;28;20047;-71
2022/12/05 00:43:35;;;;;;;40.22;25.40;;;4.30;99.90;;;;;;5093479;28;20063;-71
2022/12/05 00:46:13;;;;;;;40.88;25.02;;;4.40;99.90;;;;;;5073732;28;20048;-70
2022/12/05 00:48:39;;;;;;;40.45;24.63;;;4.30;99.90;;;;;;5057862;28;20438;-71
2022/12/05 00:51:08;;;;;;;39.88;25.05;;;4.30;99.90;;;;;;5074371;28;20388;-70
2022/12/05 00:53:34;;;;;;;38.00;23.52;;;4.40;99.90;;;;;;5061481;28;20123;-71
2022/12/05 00:56:09;;;;;;;40.35;24.90;;;4.40;99.90;;;;;;5078715;28;20052;-70
2022/12/05 00:58:36;;;;;;;34.92;21.52;;;4.40;99.90;;;;;;5047550;28;20189;-70
2022/12/05 01:01:17;;;;;;;41.05;24.30;;;4.40;99.90;;;;;;5040728;28;20040;-71
2022/12/05 01:03:43;;;;;;;40.67;27.73;;;4.50;99.90;;;;;;5063272;28;20041;-71
2022/12/05 01:06:10;;;;;;;40.80;25.60;;;4.40;99.90;;;;;;5042996;28;20423;-71
2022/12/05 01:08:36;;;;;;;41.22;25.48;;;4.40;99.90;;;;;;5035731;28;20498;-71
2022/12/05 01:11:03;;;;;;;40.58;25.17;;;4.40;99.90;;;;;;5038048;28;20051;-70
2022/12/05 01:13:30;;;;;;;40.22;26.10;;;4.40;99.90;;;;;;5063830;28;20040;-71
2022/12/05 01:15:56;;;;;;;39.22;25.58;;;4.40;99.90;;;;;;5050153;28;20052;-72
2022/12/05 01:18:22;;;;;;;41.85;27.33;;;4.60;99.90;;;;;;5055179;28;20123;-70
2022/12/05 01:20:48;;;;;;;40.63;26.98;;;4.50;99.90;;;;;;5071329;28;20040;-71
2022/12/05 01:23:15;;;;;;;40.22;25.75;;;4.50;99.90;;;;;;5074412;28;20127;-70
2022/12/05 01:25:42;;;;;;;41.63;26.20;;;4.50;99.90;;;;;;5031246;28;20044;-71
2022/12/05 01:28:08;;;;;;;36.83;23.73;;;4.50;99.90;;;;;;5054581;28;20039;-71
2022/12/05 01:30:42;;;;;;;44.03;27.27;;;4.50;99.90;;;;;;5074470;28;20048;-70
2022/12/05 01:33:09;;;;;;;41.45;26.77;;;4.50;99.90;;;;;;5074268;28;20044;-70
2022/12/05 01:35:37;;;;;;;39.92;26.27;;;4.50;99.90;;;;;;5053504;28;20044;-70
2022/12/05 01:38:04;;;;;;;42.83;26.65;;;4.50;99.90;;;;;;5060693;28;20044;-73
2022/12/05 01:40:31;;;;;;;43.47;27.70;;;4.50;99.90;;;;;;5066827;28;20076;-70
2022/12/05 01:42:58;;;;;;;46.17;28.45;;;4.50;99.90;;;;;;5065936;28;20044;-71
2022/12/05 01:45:39;;;;;;;48.13;30.58;;;4.50;99.90;;;;;;5050323;28;20056;-70
2022/12/05 01:48:18;;;;;;;42.72;27.52;;;4.50;99.90;;;;;;5060357;28;20071;-71
2022/12/05 01:50:45;;;;;;;47.28;28.77;;;4.50;99.90;;;;;;5065152;28;20102;-70
2022/12/05 01:53:11;;;;;;;48.90;30.58;;;4.50;99.90;;;;;;5077477;28;20044;-70
2022/12/05 01:55:37;;;;;;;44.60;27.13;;;4.60;99.90;;;;;;5058158;28;20060;-70
2022/12/05 01:58:05;;;;;;;51.53;30.70;;;4.50;99.90;;;;;;5037968;28;20435;-71
2022/12/05 02:00:31;;;;;;;49.35;30.90;;;4.60;99.90;;;;;;5091325;28;20083;-71
2022/12/05 02:03:03;;;;;;;48.95;29.83;;;4.70;99.90;;;;;;5085569;28;20135;-70
2022/12/05 02:05:31;;;;;;;50.05;29.45;;;4.50;99.90;;;;;;5057010;28;20045;-71
2022/12/05 02:08:00;;;;;;;53.20;32.65;;;4.50;99.90;;;;;;5057909;28;20098;-71
2022/12/05 02:10:29;;;;;;;54.20;32.05;;;4.60;99.90;;;;;;5074702;28;20045;-72
2022/12/05 02:13:06;;;;;;;55.75;32.65;;;4.50;99.90;;;;;;5074543;28;20037;-71
2022/12/05 02:15:50;;;;;;;54.50;31.73;;;4.60;99.90;;;;;;5073929;28;20070;-71
2022/12/05 02:18:16;;;;;;;54.67;32.25;;;4.60;99.90;;;;;;5087836;28;20048;-70
2022/12/05 02:21:22;;;;;;;57.17;33.10;;;5.30;99.90;;;;;;5088504;28;20033;-71
2022/12/05 02:23:47;;;;;;;57.40;33.75;;;4.60;99.90;;;;;;5074027;28;20071;-70
2022/12/05 02:26:34;;;;;;;55.72;33.83;;;4.60;99.90;;;;;;5082133;28;20544;-71
2022/12/05 02:29:17;;;;;;;52.28;30.67;;;4.60;99.90;;;;;;5063416;28;20091;-70
2022/12/05 02:31:52;;;;;;;56.03;32.67;;;4.70;99.90;;;;;;5082489;28;20044;-70
2022/12/05 02:34:35;;;;;;;56.15;33.03;;;4.70;99.90;;;;;;5092639;28;20044;-71
2022/12/05 02:37:26;;;;;;;58.47;33.00;;;4.70;99.90;;;;;;5073120;28;20040;-70
2022/12/05 02:40:14;;;;;;;58.20;34.72;;;4.70;99.90;;;;;;5079242;28;20122;-71
2022/12/05 02:43:05;;;;;;;56.50;31.92;;;4.70;99.90;;;;;;5093534;28;20044;-72
2022/12/05 02:45:34;;;;;;;58.42;34.40;;;4.70;99.90;;;;;;5084134;28;20056;-70
2022/12/05 02:48:01;;;;;;;58.90;33.20;;;4.70;99.90;;;;;;5077051;28;20484;-71
2022/12/05 02:50:37;;;;;;;52.80;32.70;;;4.80;99.90;;;;;;5084639;28;20067;-71
2022/12/05 02:53:09;;;;;;;52.60;31.30;;;4.80;99.90;;;;;;5078125;28;20047;-72
2022/12/05 02:55:36;;;;;;;56.83;34.65;;;4.80;99.90;;;;;;5084944;28;20055;-71
2022/12/05 02:58:10;;;;;;;58.92;34.08;;;4.80;99.90;;;;;;5061132;28;20517;-71
2022/12/05 03:00:39;;;;;;;56.78;33.53;;;4.80;99.90;;;;;;5068475;28;20044;-71
2022/12/05 03:03:12;;;;;;;57.22;35.35;;;4.80;99.90;;;;;;5077522;28;20047;-71
2022/12/05 03:05:46;;;;;;;54.80;35.85;;;4.90;99.90;;;;;;5092492;28;20051;-70
2022/12/05 03:08:19;;;;;;;53.55;31.98;;;4.90;99.90;;;;;;5091013;28;20063;-70
2022/12/05 03:10:46;;;;;;;54.80;32.22;;;4.90;99.90;;;;;;5076798;28;20562;-70
2022/12/05 03:13:19;;;;;;;56.42;32.90;;;4.90;99.90;;;;;;5093288;28;20050;-70
2022/12/05 03:15:55;;;;;;;53.97;32.30;;;4.90;99.90;;;;;;5078750;28;20035;-70
2022/12/05 03:18:28;;;;;;;55.55;32.22;;;4.90;99.90;;;;;;5076620;28;20059;-71
2022/12/05 03:21:01;;;;;;;57.72;32.83;;;5.40;99.90;;;;;;5065673;28;20058;-70
2022/12/05 03:23:45;;;;;;;54.47;30.88;;;4.90;99.90;;;;;;5076298;28;20127;-71
2022/12/05 03:26:33;;;;;;;61.00;32.85;;;4.90;99.90;;;;;;5059774;28;20055;-71
2022/12/05 03:29:25;;;;;;;55.97;32.53;;;4.80;99.90;;;;;;5077000;28;20131;-71
2022/12/05 03:32:13;;;;;;;60.17;34.03;;;4.90;99.90;;;;;;5083613;28;20044;-71
2022/12/05 03:35:21;;;;;;;59.30;32.83;;;4.90;99.90;;;;;;5067640;28;20051;-72
2022/12/05 03:37:57;;;;;;;56.72;32.40;;;4.90;99.90;;;;;;5096335;28;20040;-71
2022/12/05 03:40:34;;;;;;;59.08;34.40;;;4.90;99.90;;;;;;5096329;28;20074;-71
2022/12/05 03:43:24;;;;;;;54.83;29.70;;;4.90;99.90;;;;;;5059784;28;20126;-71
2022/12/05 03:46:02;;;;;;;56.20;31.85;;;4.90;99.90;;;;;;5106861;28;20051;-71
2022/12/05 03:48:46;;;;;;;60.78;31.92;;;4.90;99.90;;;;;;5082279;28;20051;-71
2022/12/05 03:51:15;;;;;;;55.15;30.63;;;4.90;99.90;;;;;;5092550;28;20048;-71
2022/12/05 03:53:47;;;;;;;59.05;31.90;;;4.90;99.90;;;;;;5079126;28;20433;-70
2022/12/05 03:56:25;;;;;;;61.47;33.97;;;4.90;99.90;;;;;;5078503;28;20043;-71
2022/12/05 03:59:16;;;;;;;55.08;29.30;;;4.90;99.90;;;;;;5075784;28;20473;-70
2022/12/05 04:01:44;;;;;;;54.85;31.35;;;5.00;99.90;;;;;;5075515;28;20044;-70
2022/12/05 04:04:15;;;;;;;55.28;30.05;;;4.90;99.90;;;;;;5088649;28;20098;-70
2022/12/05 04:06:45;;;;;;;55.95;31.00;;;5.00;99.90;;;;;;5075249;28;20057;-70
2022/12/05 04:09:16;;;;;;;54.47;30.27;;;4.90;99.90;;;;;;5075727;28;20071;-70
2022/12/05 04:11:47;;;;;;;52.63;29.45;;;5.00;99.90;;;;;;5094019;28;20114;-70
2022/12/05 04:14:27;;;;;;;53.55;30.25;;;5.00;99.90;;;;;;5084486;28;20055;-70
2022/12/05 04:17:03;;;;;;;51.05;28.33;;;5.00;99.90;;;;;;5067629;28;20048;-71
2022/12/05 04:22:24;;;;;;;49.25;28.40;;;5.00;99.90;;;;;;5105650;28;20055;-70
2022/12/05 04:27:55;;;;;;;43.95;26.35;;;6.00;99.90;;;;;;5014548;28;20137;-70
2022/12/05 04:30:24;;;;;;;46.55;27.60;;;5.10;99.90;;;;;;5030033;28;20096;-71
2022/12/05 04:32:55;;;;;;;44.25;27.60;;;5.10;99.90;;;;;;5047294;28;20052;-70
2022/12/05 04:35:45;;;;;;;41.63;26.07;;;5.10;99.90;;;;;;5088296;28;20044;-70
2022/12/05 04:38:19;;;;;;;42.65;25.90;;;5.10;99.90;;;;;;5070164;28;20289;-70
2022/12/05 04:41:04;;;;;;;41.85;26.05;;;5.20;99.90;;;;;;5093250;28;20044;-70
2022/12/05 04:43:34;;;;;;;41.70;26.17;;;5.20;99.90;;;;;;5068381;28;20048;-71
2022/12/05 04:46:04;;;;;;;43.22;26.05;;;5.20;99.90;;;;;;5077894;28;20410;-70
2022/12/05 04:48:32;;;;;;;42.47;26.10;;;5.10;99.90;;;;;;5085714;28;20159;-71
2022/12/05 04:50:58;;;;;;;42.92;26.63;;;5.20;99.90;;;;;;5092185;28;20487;-70
2022/12/05 04:53:28;;;;;;;42.20;26.65;;;5.20;99.90;;;;;;5058322;28;20099;-70
2022/12/05 04:55:57;;;;;;;40.13;24.17;;;6.00;99.90;;;;;;5058351;28;20051;-70
2022/12/05 04:58:29;;;;;;;40.05;27.00;;;5.40;99.90;;;;;;5095332;28;20122;-71
2022/12/05 05:01:21;;;;;;;40.97;24.33;;;5.20;99.90;;;;;;5078683;28;20043;-70
2022/12/05 05:04:05;;;;;;;43.33;26.88;;;5.20;99.90;;;;;;5084824;28;20048;-71
2022/12/05 05:06:32;;;;;;;39.38;25.00;;;5.10;99.90;;;;;;5076857;28;20044;-70
2022/12/05 05:08:57;;;;;;;44.00;26.58;;;5.10;99.90;;;;;;5095232;28;20085;-70
2022/12/05 05:11:34;;;;;;;43.28;26.30;;;5.10;99.90;;;;;;5064915;28;20109;-70
2022/12/05 05:14:00;;;;;;;49.70;29.73;;;5.10;99.90;;;;;;5068531;28;20078;-70
2022/12/05 05:16:29;;;;;;;48.90;27.83;;;5.10;99.90;;;;;;5060294;28;20040;-69
2022/12/05 05:18:55;;;;;;;47.60;27.38;;;5.10;99.90;;;;;;5068948;28;20047;-70
2022/12/05 05:21:30;;;;;;;48.97;28.20;;;5.10;99.90;;;;;;5050672;28;20101;-70
2022/12/05 05:23:57;;;;;;;46.47;27.42;;;5.60;99.90;;;;;;5092628;28;20072;-70
2022/12/05 05:26:23;;;;;;;49.30;28.63;;;5.10;99.90;;;;;;5067725;28;20555;-70
2022/12/05 05:28:50;;;;;;;46.25;28.08;;;5.10;99.90;;;;;;5062072;28;20130;-71
2022/12/05 05:31:17;;;;;;;48.15;28.80;;;5.10;99.90;;;;;;5097282;28;20479;-70
2022/12/05 05:33:43;;;;;;;60.40;36.70;;;5.10;99.90;;;;;;5064797;28;20043;-71
2022/12/05 05:36:12;;;;;;;46.45;27.67;;;5.10;99.90;;;;;;5065142;28;20531;-70
2022/12/05 05:38:43;;;;;;;42.67;25.77;;;5.10;99.90;;;;;;5087426;28;20048;-71
2022/12/05 05:41:14;;;;;;;43.05;26.42;;;5.10;99.90;;;;;;5095913;28;20040;-70
2022/12/05 05:43:41;;;;;;;43.50;26.48;;;5.40;99.90;;;;;;5064040;28;20039;-71
2022/12/05 05:46:07;;;;;;;46.30;27.92;;;5.10;99.90;;;;;;5081654;28;20048;-71
2022/12/05 05:48:32;;;;;;;42.63;25.35;;;5.10;99.90;;;;;;5093306;28;20048;-71
2022/12/05 05:50:59;;;;;;;45.97;27.17;;;5.10;99.90;;;;;;5091381;28;20036;-70
2022/12/05 05:53:25;;;;;;;47.15;30.30;;;5.40;99.90;;;;;;5093191;28;20075;-70
2022/12/05 05:55:50;;;;;;;47.50;31.58;;;5.10;99.90;;;;;;5084395;28;20516;-71
2022/12/05 05:58:16;;;;;;;47.78;30.30;;;5.10;99.90;;;;;;5105431;28;20040;-71
2022/12/05 06:00:42;;;;;;;44.47;24.63;;;5.10;99.90;;;;;;5089151;28;20044;-70
2022/12/05 06:03:08;;;;;;;42.70;25.77;;;5.10;99.90;;;;;;5083391;28;20039;-70
2022/12/05 06:05:33;;;;;;;42.72;27.02;;;5.10;99.90;;;;;;5082904;28;20043;-70
2022/12/05 06:07:59;;;;;;;43.92;27.25;;;5.20;99.90;;;;;;5083223;28;20133;-70
2022/12/05 06:10:25;;;;;;;40.78;25.40;;;5.10;99.90;;;;;;5091880;28;20552;-70
2022/12/05 06:12:51;;;;;;;46.35;27.42;;;5.10;99.90;;;;;;5054222;28;20042;-69
2022/12/05 06:15:17;;;;;;;48.30;31.13;;;5.10;99.90;;;;;;5051689;28;20044;-70
2022/12/05 06:17:42;;;;;;;51.25;30.80;;;5.10;99.90;;;;;;5078362;28;20039;-70
2022/12/05 06:20:08;;;;;;;42.92;24.40;;;5.10;99.90;;;;;;5077111;28;20095;-71
2022/12/05 06:22:34;;;;;;;41.13;25.15;;;5.10;99.90;;;;;;5076453;28;20055;-70
2022/12/05 06:25:00;;;;;;;44.95;26.98;;;5.10;99.90;;;;;;5077397;28;20044;-72
2022/12/05 06:27:30;;;;;;;56.17;35.03;;;5.10;99.90;;;;;;5077949;28;20044;-71
2022/12/05 06:29:56;;;;;;;51.38;30.75;;;5.10;99.90;;;;;;5076290;28;20360;-71
2022/12/05 06:32:21;;;;;;;93.70;54.72;;;5.10;99.90;;;;;;5080336;28;20542;-71
2022/12/05 06:34:47;;;;;;;44.60;26.33;;;5.10;99.90;;;;;;5037635;28;20047;-71
2022/12/05 06:37:13;;;;;;;90.80;49.25;;;5.10;99.90;;;;;;5056731;28;20044;-71
2022/12/05 06:39:39;;;;;;;194.27;88.85;;;5.10;99.90;;;;;;5059051;28;20055;-72
2022/12/05 06:42:04;;;;;;;166.60;75.05;;;5.10;99.90;;;;;;5060218;28;20051;-71
2022/12/05 06:44:30;;;;;;;73.07;36.08;;;5.60;99.90;;;;;;5070812;28;20040;-71
2022/12/05 06:46:56;;;;;;;50.33;31.42;;;5.10;99.90;;;;;;5079429;28;20403;-71
2022/12/05 06:49:25;;;;;;;40.70;26.00;;;5.10;99.90;;;;;;5077676;28;20572;-71
2022/12/05 06:51:52;;;;;;;39.70;26.55;;;5.10;99.90;;;;;;5060784;28;20062;-72
2022/12/05 06:54:18;;;;;;;48.28;33.30;;;5.10;99.90;;;;;;5076336;28;20400;-71
2022/12/05 06:56:43;;;;;;;41.63;26.00;;;5.20;99.90;;;;;;5076807;28;20044;-71
2022/12/05 06:59:09;;;;;;;39.97;28.55;;;5.10;99.90;;;;;;5067395;28;20044;-71
2022/12/05 07:01:37;;;;;;;49.22;35.17;;;5.10;99.90;;;;;;5065977;28;20488;-70
2022/12/05 07:04:14;;;;;;;39.03;27.70;;;5.10;99.90;;;;;;5078028;28;20042;-71
2022/12/05 07:06:42;;;;;;;35.97;27.17;;;5.10;99.90;;;;;;5076549;28;20043;-71
2022/12/05 07:09:07;;;;;;;30.27;21.70;;;5.10;99.90;;;;;;5071981;28;20048;-71
2022/12/05 07:11:34;;;;;;;24.80;18.42;;;5.10;99.90;;;;;;5082412;28;20525;-71
2022/12/05 07:14:00;;;;;;;23.13;16.17;;;5.30;99.90;;;;;;5094832;28;20190;-72
2022/12/05 07:16:26;;;;;;;21.27;14.95;;;5.40;99.90;;;;;;5081845;28;20090;-71
2022/12/05 07:18:51;;;;;;;20.35;14.80;;;5.10;99.90;;;;;;5079960;28;20044;-71
2022/12/05 07:21:19;;;;;;;21.90;15.13;;;5.10;99.90;;;;;;5095903;28;20406;-71
2022/12/05 07:23:46;;;;;;;18.23;12.65;;;5.50;99.90;;;;;;5080287;28;20043;-71
2022/12/05 07:26:18;;;;;;;19.83;12.40;;;5.10;99.90;;;;;;5076027;28;20028;-73
2022/12/05 07:28:45;;;;;;;19.60;13.88;;;5.20;99.90;;;;;;5060371;28;20056;-71
2022/12/05 07:31:13;;;;;;;22.33;13.32;;;5.20;99.90;;;;;;5061913;28;20593;-72
2022/12/05 07:33:39;;;;;;;21.95;13.40;;;5.10;99.90;;;;;;5088435;28;20046;-72
2022/12/05 07:36:09;;;;;;;22.70;16.50;;;5.30;99.90;;;;;;5074853;28;20036;-72
2022/12/05 07:38:35;;;;;;;21.33;13.88;;;5.20;99.90;;;;;;5081865;28;20044;-72
2022/12/05 07:41:05;;;;;;;25.90;15.05;;;5.20;99.90;;;;;;5078173;28;20051;-74
2022/12/05 07:43:31;;;;;;;24.45;13.80;;;5.20;99.90;;;;;;5083357;28;20052;-72
2022/12/05 07:46:04;;;;;;;24.40;13.98;;;5.20;99.90;;;;;;5058777;28;20051;-73
2022/12/05 07:48:30;;;;;;;20.58;13.05;;;5.20;99.90;;;;;;5072014;28;20058;-71
2022/12/05 07:51:01;;;;;;;17.85;12.40;;;5.20;99.90;;;;;;5075863;28;20573;-70
2022/12/05 07:53:27;;;;;;;17.48;11.23;;;5.20;99.90;;;;;;5079106;28;20044;-70
2022/12/05 07:55:53;;;;;;;20.80;13.40;;;5.50;99.90;;;;;;5086830;28;20040;-72
2022/12/05 07:58:18;;;;;;;19.70;12.27;;;5.30;99.90;;;;;;5095784;28;20058;-71
2022/12/05 08:00:44;;;;;;;23.52;13.55;;;5.20;99.90;;;;;;5074808;28;20052;-72
2022/12/05 08:03:10;;;;;;;18.92;11.95;;;5.20;99.90;;;;;;5071446;28;20101;-72
2022/12/05 08:05:36;;;;;;;18.65;11.95;;;5.20;99.90;;;;;;5087263;28;20051;-71
2022/12/05 08:08:02;;;;;;;21.25;13.75;;;5.30;99.90;;;;;;5081329;28;20051;-72
2022/12/05 08:10:28;;;;;;;42.22;23.25;;;5.30;99.90;;;;;;5070222;28;20043;-72
2022/12/05 08:12:53;;;;;;;24.10;15.90;;;5.30;99.90;;;;;;5081913;28;20048;-74
2022/12/05 08:15:19;;;;;;;38.20;24.20;;;5.30;99.90;;;;;;5071199;28;20056;-73
2022/12/05 08:17:44;;;;;;;24.38;14.60;;;5.30;99.90;;;;;;5091734;28;20471;-72
2022/12/05 08:20:11;;;;;;;25.02;15.90;;;5.30;99.90;;;;;;5070613;28;20043;-72
2022/12/05 08:22:36;;;;;;;26.60;17.30;;;5.30;99.90;;;;;;5075846;28;20047;-73
2022/12/05 08:25:02;;;;;;;23.23;14.45;;;5.30;99.90;;;;;;5073875;28;20052;-72
2022/12/05 08:27:28;;;;;;;30.35;18.85;;;5.30;99.90;;;;;;5073449;28;20052;-73
2022/12/05 08:29:54;;;;;;;22.35;16.05;;;5.40;99.90;;;;;;5068150;28;20067;-72
2022/12/05 08:32:19;;;;;;;22.35;15.63;;;5.60;99.90;;;;;;5094505;28;20083;-74
2022/12/05 08:34:45;;;;;;;27.23;19.80;;;5.50;99.90;;;;;;5090638;28;20119;-73
2022/12/05 08:37:11;;;;;;;31.33;24.38;;;5.30;99.90;;;;;;5102889;28;20319;-73
2022/12/05 08:39:36;;;;;;;24.65;18.42;;;5.40;99.90;;;;;;5055950;28;20051;-73
2022/12/05 08:42:02;;;;;;;22.55;18.25;;;5.30;99.90;;;;;;5074039;28;20084;-72
2022/12/05 08:44:28;;;;;;;24.60;16.15;;;5.30;99.90;;;;;;5089662;28;20046;-73
2022/12/05 08:46:54;;;;;;;25.08;16.92;;;5.30;99.90;;;;;;5067326;28;20067;-72
2022/12/05 08:49:19;;;;;;;26.40;20.65;;;5.30;99.90;;;;;;5106536;28;20039;-72
2022/12/05 08:51:45;;;;;;;19.63;13.27;;;5.30;99.90;;;;;;5074539;28;20047;-73
2022/12/05 08:54:11;;;;;;;19.83;12.57;;;5.30;99.90;;;;;;5102073;28;20051;-71
2022/12/05 08:56:37;;;;;;;20.27;13.32;;;5.20;99.90;;;;;;5089345;28;20361;-72
2022/12/05 08:59:04;;;;;;;19.40;13.07;;;5.40;99.90;;;;;;5074131;28;20123;-72
2022/12/05 09:01:30;;;;;;;20.52;13.18;;;5.30;99.90;;;;;;5072375;28;20463;-73
2022/12/05 09:04:01;;;;;;;17.25;12.13;;;5.30;99.90;;;;;;5091508;28;20406;-72
2022/12/05 09:06:28;;;;;;;21.08;12.70;;;5.30;99.90;;;;;;5067784;28;20520;-73
2022/12/05 09:08:57;;;;;;;18.33;11.63;;;5.30;99.90;;;;;;5085571;28;20044;-73
2022/12/05 09:11:25;;;;;;;18.38;12.38;;;5.30;99.90;;;;;;5072259;28;20054;-71
2022/12/05 09:13:52;;;;;;;19.83;12.50;;;5.30;99.90;;;;;;5070271;28;20048;-72
2022/12/05 09:16:24;;;;;;;19.58;12.48;;;5.40;99.90;;;;;;5087978;28;20043;-71
2022/12/05 09:18:51;;;;;;;19.42;12.52;;;5.30;99.90;;;;;;5083969;28;20565;-72
2022/12/05 09:21:28;;;;;;;19.60;12.00;;;5.20;99.90;;;;;;5086525;28;20056;-72
2022/12/05 09:23:54;;;;;;;19.45;12.32;;;5.50;99.90;;;;;;5088711;28;20124;-72
2022/12/05 09:26:25;;;;;;;17.63;12.50;;;5.60;99.90;;;;;;5093676;28;20570;-72
2022/12/05 09:28:51;;;;;;;22.30;13.55;;;5.20;99.90;;;;;;5077366;28;20524;-72
2022/12/05 09:31:20;;;;;;;19.20;13.18;;;5.20;99.90;;;;;;5071815;28;20075;-72
2022/12/05 09:33:48;;;;;;;23.02;14.20;;;5.20;99.90;;;;;;5084314;28;20036;-72
2022/12/05 09:36:18;;;;;;;21.80;13.60;;;5.20;99.90;;;;;;5074164;28;20096;-71
2022/12/05 09:38:45;;;;;;;20.92;12.75;;;5.20;99.90;;;;;;5101026;28;20119;-72
2022/12/05 09:44:59;;;;;;;20.33;13.23;;;5.20;99.90;;;;;;5085092;28;20356;-72
2022/12/05 09:47:59;;;;;;;20.10;12.80;;;5.20;99.90;;;;;;5088476;28;20051;-72
2022/12/05 09:50:39;;;;;;;23.85;14.63;;;5.20;99.90;;;;;;5076412;28;20060;-74
2022/12/05 09:53:08;;;;;;;20.50;13.43;;;5.20;99.90;;;;;;5071123;28;20040;-73
2022/12/05 09:55:57;;;;;;;21.60;13.43;;;5.20;99.90;;;;;;5098076;28;20121;-72
2022/12/05 09:58:38;;;;;;;22.00;13.55;;;5.10;99.90;;;;;;5087080;28;20060;-75
2022/12/05 10:01:39;;;;;;;22.90;14.50;;;5.20;99.90;;;;;;5087738;28;20534;-73
2022/12/05 10:04:28;;;;;;;23.02;15.38;;;5.20;99.90;;;;;;5104705;28;20056;-72
2022/12/05 10:06:56;;;;;;;26.73;17.15;;;5.10;99.90;;;;;;5081504;28;20057;-72
2022/12/05 10:09:56;;;;;;;27.75;17.15;;;5.20;99.90;;;;;;5066911;28;20487;-72
2022/12/05 10:12:42;;;;;;;32.95;21.63;;;5.10;99.90;;;;;;5085271;28;20056;-72
2022/12/05 10:15:14;;;;;;;27.15;17.63;;;5.10;99.90;;;;;;5070702;28;20040;-72
2022/12/05 10:17:46;;;;;;;45.33;34.58;;;5.10;99.90;;;;;;5089365;28;20055;-72
2022/12/05 10:20:24;;;;;;;28.60;18.70;;;5.10;99.90;;;;;;5072753;28;20066;-73
2022/12/05 10:22:55;;;;;;;38.17;25.98;;;5.10;99.90;;;;;;5078388;28;20081;-73
2022/12/05 10:25:22;;;;;;;29.00;18.73;;;5.10;99.90;;;;;;5090658;28;20039;-73
2022/12/05 10:27:56;;;;;;;28.70;17.27;;;5.20;99.90;;;;;;5076844;28;20098;-73
2022/12/05 10:30:24;;;;;;;29.17;17.95;;;5.10;99.90;;;;;;5068751;28;20044;-72
2022/12/05 10:33:00;;;;;;;25.75;17.15;;;5.10;99.90;;;;;;5076378;28;20556;-73
2022/12/05 10:35:32;;;;;;;27.05;17.30;;;5.10;99.90;;;;;;5057958;28;20501;-75
2022/12/05 10:38:19;;;;;;;25.70;16.40;;;5.10;99.90;;;;;;5103879;28;20074;-72
2022/12/05 10:40:49;;;;;;;25.40;13.63;;;5.10;99.90;;;;;;5090662;28;20127;-71
2022/12/05 10:43:23;;;;;;;25.75;16.20;;;5.20;99.90;;;;;;5089646;28;20051;-72
2022/12/05 10:45:49;;;;;;;25.95;17.00;;;5.10;99.90;;;;;;5101470;27;20044;-72
2022/12/05 10:48:17;;;;;;;27.08;15.65;;;5.10;99.90;;;;;;5119636;27;20051;-73
2022/12/05 10:50:47;;;;;;;25.85;15.80;;;5.20;99.90;;;;;;5086747;28;20120;-72
2022/12/05 10:53:33;;;;;;;24.33;15.10;;;5.10;99.90;;;;;;5100442;27;20475;-72
2022/12/05 10:55:59;;;;;;;29.42;15.13;;;5.10;99.90;;;;;;5028494;27;20062;-72
2022/12/05 10:58:27;;;;;;;27.08;15.05;;;5.10;99.90;;;;;;5080022;27;20052;-70
2022/12/05 11:01:14;;;;;;;25.27;15.50;;;5.10;99.90;;;;;;5101820;27;20067;-71
2022/12/05 11:03:41;;;;;;;26.15;14.82;;;5.10;99.90;;;;;;5093677;28;20047;-71
2022/12/05 11:06:23;;;;;;;25.20;15.45;;;5.10;99.90;;;;;;5057424;28;20557;-72
2022/12/05 11:08:54;;;;;;;28.02;18.40;;;5.10;99.90;;;;;;5089998;27;20102;-72
2022/12/05 11:11:23;;;;;;;25.60;15.40;;;5.10;99.90;;;;;;5109398;27;20050;-72
2022/12/05 11:13:54;;;;;;;26.35;16.85;;;5.10;99.90;;;;;;5090199;27;20068;-71
2022/12/05 11:16:25;;;;;;;26.02;16.50;;;5.10;99.90;;;;;;5094225;27;20086;-72
2022/12/05 11:18:52;;;;;;;27.77;17.60;;;5.10;99.90;;;;;;5076562;27;20105;-71
2022/12/05 11:21:18;;;;;;;34.17;20.88;;;5.10;99.90;;;;;;5097020;27;20040;-72
2022/12/05 11:23:45;;;;;;;22.38;13.70;;;5.10;99.90;;;;;;5101276;27;20059;-72
2022/12/05 11:26:36;;;;;;;25.48;14.15;;;5.10;99.90;;;;;;5077931;28;20511;-73
2022/12/05 11:29:03;;;;;;;22.88;13.48;;;5.10;99.90;;;;;;5097419;27;20139;-71
2022/12/05 11:31:31;;;;;;;22.15;12.73;;;5.10;99.90;;;;;;5105815;27;20057;-72
2022/12/05 11:34:02;;;;;;;21.40;13.18;;;5.40;99.90;;;;;;5088998;28;20053;-72
2022/12/05 11:36:47;;;;;;;23.67;13.27;;;5.10;99.90;;;;;;5095379;27;20069;-72
2022/12/05 11:39:13;;;;;;;22.80;13.68;;;5.10;99.90;;;;;;5094425;28;20047;-75
2022/12/05 11:41:48;;;;;;;24.52;13.63;;;5.10;99.90;;;;;;5102751;28;20039;-76
2022/12/05 11:44:28;;;;;;;23.73;13.90;;;5.10;99.90;;;;;;5089053;27;20394;-72
2022/12/05 11:47:32;;;;;;;22.50;13.43;;;5.10;99.90;;;;;;5084284;28;20134;-73
2022/12/05 11:50:16;;;;;;;26.48;13.77;;;5.10;99.90;;;;;;5107460;27;20658;-74
2022/12/05 11:52:56;;;;;;;26.90;15.30;;;5.10;99.90;;;;;;5108198;27;20044;-74
2022/12/05 11:55:28;;;;;;;23.20;13.95;;;5.20;99.90;;;;;;5092265;28;20108;-74
2022/12/05 11:58:07;;;;;;;20.23;12.82;;;5.10;99.90;;;;;;5112565;27;20050;-72
2022/12/05 12:01:12;;;;;;;22.30;13.27;;;5.20;99.90;;;;;;5107202;28;20373;-72
2022/12/05 12:03:56;;;;;;;22.20;13.30;;;5.20;99.90;;;;;;5105015;27;20080;-72
2022/12/05 12:06:29;;;;;;;24.48;13.85;;;5.20;99.90;;;;;;5035176;27;20466;-73
2022/12/05 12:09:05;;;;;;;22.98;13.75;;;5.60;99.90;;;;;;5109144;28;20044;-73
2022/12/05 12:11:57;;;;;;;22.52;12.25;;;5.20;99.90;;;;;;5093770;27;20050;-73
2022/12/05 12:14:25;;;;;;;19.40;11.93;;;5.20;99.90;;;;;;5090823;27;20411;-73
2022/12/05 12:16:54;;;;;;;20.02;11.70;;;5.20;99.90;;;;;;5115280;27;20040;-72
2022/12/05 12:19:28;;;;;;;17.90;11.73;;;5.20;99.90;;;;;;5107683;27;20063;-71
2022/12/05 12:22:00;;;;;;;38.55;21.60;;;5.20;99.90;;;;;;5088329;27;20054;-72
2022/12/05 12:24:37;;;;;;;30.83;16.92;;;5.20;99.90;;;;;;5104262;28;20084;-73
2022/12/05 12:27:39;;;;;;;30.73;18.23;;;5.20;99.90;;;;;;5089496;28;20459;-72
2022/12/05 12:30:15;;;;;;;101.85;51.53;;;5.20;99.90;;;;;;5109071;27;20051;-73
2022/12/05 12:32:56;;;;;;;84.43;41.85;;;5.30;99.90;;;;;;5109895;27;20053;-72
2022/12/05 12:35:29;;;;;;;65.15;34.03;;;5.20;99.90;;;;;;5102494;27;20055;-72
2022/12/05 12:38:25;;;;;;;108.05;52.58;;;5.20;99.90;;;;;;5109994;28;20049;-73
2022/12/05 12:40:59;;;;;;;143.85;63.97;;;5.20;99.90;;;;;;5109943;28;20474;-73
2022/12/05 12:43:46;;;;;;;41.85;21.00;;;5.20;99.90;;;;;;5086316;28;20499;-73
2022/12/05 12:46:26;;;;;;;86.25;43.60;;;5.20;99.90;;;;;;5093448;28;20067;-73
2022/12/05 12:49:04;;;;;;;62.75;31.80;;;5.20;99.90;;;;;;5092593;28;20475;-72
2022/12/05 12:51:32;;;;;;;79.60;38.17;;;5.20;99.90;;;;;;5111382;28;20099;-73
2022/12/05 12:54:20;;;;;;;110.78;55.22;;;5.20;99.90;;;;;;5094736;28;20078;-72
2022/12/05 12:57:12;;;;;;;96.18;46.67;;;5.20;99.90;;;;;;5094216;28;20042;-72
2022/12/05 12:59:48;;;;;;;91.65;53.35;;;5.20;99.90;;;;;;5086595;28;20117;-73
2022/12/05 13:02:21;;;;;;;72.95;45.15;;;5.60;99.90;;;;;;5105492;28;20072;-72
2022/12/05 13:04:59;;;;;;;22.92;14.18;;;5.20;99.90;;;;;;5107198;28;20487;-73
2022/12/05 13:07:43;;;;;;;34.20;27.83;;;5.20;99.90;;;;;;5111850;28;21011;-71
2022/12/05 13:10:23;;;;;;;52.38;46.95;;;5.60;99.90;;;;;;5100839;28;20040;-72